Time;durP1;ratioP1;P1;durP2;ratioP2;P2;SDS_P1;SDS_P2;PMS_P1;PMS_P2;Temp;Humidity;BMP_temperature;BMP_pressure;BME280_temperature;BME280_humidity;BME280_pressure;Samples;Min_cycle;Max_cycle;Signal;HPM_P1;HPM_P2
2021/05/21 00:02:01;;;;;;;12.45;7.43;;;;;;;-150.07;68.35;61545.66;4924342;29;20084;-95
2021/05/21 00:04:28;;;;;;;12.20;9.20;;;;;;;-150.07;68.95;61830.25;4924066;29;20032;-94
2021/05/21 00:06:58;;;;;;;9.10;8.13;;;;;;;-150.07;68.42;62495.78;4912933;29;20513;-87
2021/05/21 00:09:27;;;;;;;12.75;8.70;;;;;;;-150.07;68.78;61581.22;4920125;29;20033;-89
2021/05/21 00:11:55;;;;;;;10.55;8.10;;;;;;;-150.07;68.82;62340.91;4910200;29;20045;-88
2021/05/21 00:14:22;;;;;;;7.20;6.50;;;;;;;-150.07;68.84;61489.16;4907855;29;20029;-85
2021/05/21 00:16:49;;;;;;;8.38;7.55;;;;;;;-150.07;69.20;61545.66;4891894;29;20381;-80
2021/05/21 00:19:16;;;;;;;8.82;7.00;;;;;;;-150.07;69.17;61943.25;4894428;29;20024;-81
2021/05/21 00:21:43;;;;;;;6.57;5.82;;;;;;;-150.07;69.21;61570.75;4896960;29;20100;-80
2021/05/21 00:24:10;;;;;;;6.75;6.05;;;;;;;-150.07;69.81;61574.94;4894146;29;20033;-80
2021/05/21 00:26:37;;;;;;;6.85;5.80;;;;;;;-150.07;69.28;61528.91;4912120;29;20044;-79
2021/05/21 00:29:06;;;;;;;10.50;6.38;;;;;;;-150.07;69.63;61125.06;4926362;29;20059;-79
2021/05/21 00:31:34;;;;;;;6.97;6.20;;;;;;;-150.07;69.74;61526.81;4919188;29;20039;-81
2021/05/21 00:34:01;;;;;;;8.40;6.95;;;;;;;-150.07;70.44;62181.84;4913890;29;20025;-80
2021/05/21 00:36:28;;;;;;;7.88;6.57;;;;;;;-150.07;70.37;61520.53;4913621;29;20024;-81
2021/05/21 00:38:55;;;;;;;8.45;7.18;;;;;;;-150.07;70.71;62372.28;4924530;29;20167;-80
2021/05/21 00:41:23;;;;;;;7.88;7.05;;;;;;;-150.07;70.46;61551.91;4922726;29;20036;-81
2021/05/21 00:43:54;;;;;;;8.20;6.93;;;;;;;-150.07;70.88;61510.06;4919841;29;20504;-81
2021/05/21 00:46:21;;;;;;;10.65;7.28;;;;;;;-150.07;70.58;61441.03;4917093;29;20028;-78
2021/05/21 00:48:48;;;;;;;20.50;8.35;;;;;;;-150.07;70.61;61357.31;4926086;29;20020;-81
2021/05/21 00:51:15;;;;;;;7.88;7.07;;;;;;;-150.07;69.84;61805.13;4918823;29;20042;-82
2021/05/21 00:53:42;;;;;;;12.48;9.05;;;;;;;-150.07;70.39;61558.19;4920157;29;20031;-85
2021/05/21 00:56:09;;;;;;;12.40;10.70;;;;;;;-150.07;70.75;62386.94;4905925;29;20059;-84
2021/05/21 00:58:37;;;;;;;13.77;12.25;;;;;;;-150.07;71.61;62786.72;4921507;28;20028;-84
2021/05/21 01:01:05;;;;;;;16.95;13.13;;;;;;;-150.07;72.51;61520.53;4903604;29;20039;-84
2021/05/21 01:03:32;;;;;;;14.98;12.68;;;;;;;-150.07;71.76;62667.41;4899741;29;20512;-84
2021/05/21 01:05:59;;;;;;;13.18;11.88;;;;;;;-150.07;72.01;61516.34;4931940;29;20032;-83
2021/05/21 01:08:26;;;;;;;14.32;12.80;;;;;;;-150.07;71.84;61482.88;4918224;29;20031;-82
2021/05/21 01:10:53;;;;;;;19.70;12.55;;;;;;;-150.07;71.56;61520.53;4919670;29;20032;-82
2021/05/21 01:13:19;;;;;;;13.07;11.23;;;;;;;-150.07;71.02;61292.44;4937185;29;20028;-84
2021/05/21 01:15:46;;;;;;;12.55;11.27;;;;;;;-150.07;71.16;62623.47;4901517;29;20549;-81
2021/05/21 01:18:13;;;;;;;13.25;12.00;;;;;;;-150.07;71.71;61361.50;4921373;29;20031;-85
2021/05/21 01:20:40;;;;;;;15.75;12.57;;;;;;;-150.07;71.84;61315.47;4937726;29;20028;-82
2021/05/21 01:23:07;;;;;;;14.00;10.40;;;;;;;-150.07;72.07;62355.56;4922260;29;20039;-84
2021/05/21 01:25:36;;;;;;;9.23;8.30;;;;;;;-150.07;72.96;61348.94;4917483;29;20051;-83
2021/05/21 01:28:04;;;;;;;13.10;10.25;;;;;;;-150.07;73.67;61399.16;4904524;29;20144;-84
2021/05/21 01:30:31;;;;;;;9.35;8.23;;;;;;;-150.07;73.44;62780.44;4919631;29;20017;-84
2021/05/21 01:33:07;;;;;;;10.63;8.13;;;;;;;-150.07;74.07;61261.06;4906066;29;20119;-84
2021/05/21 01:35:34;;;;;;;7.55;6.85;;;;;;;-150.07;73.65;62462.28;4923638;29;20028;-83
2021/05/21 01:38:01;;;;;;;7.10;6.40;;;;;;;-150.07;74.21;61558.19;4904078;29;20050;-84
2021/05/21 01:40:29;;;;;;;7.70;6.93;;;;;;;-150.07;74.09;61328.03;4918182;29;20034;-84
2021/05/21 01:42:57;;;;;;;9.40;6.63;;;;;;;-150.07;74.24;61505.88;4921769;29;20111;-82
2021/05/21 01:45:24;;;;;;;9.77;7.65;;;;;;;-150.07;74.72;61294.53;4902613;29;20040;-82
2021/05/21 01:47:50;;;;;;;6.80;6.13;;;;;;;-150.07;74.57;62516.72;4920180;29;20036;-83
2021/05/21 01:50:18;;;;;;;10.68;6.60;;;;;;;-150.07;74.50;61501.69;4936032;29;20114;-88
2021/05/21 01:52:45;;;;;;;16.60;7.63;;;;;;;-150.07;74.24;61558.19;4919646;29;20592;-84
2021/05/21 01:55:13;;;;;;;10.35;6.72;;;;;;;-150.07;74.36;62642.31;4911076;29;20043;-81
2021/05/21 01:57:41;;;;;;;7.22;6.53;;;;;;;-150.07;73.50;61537.28;4900586;29;20042;-86
2021/05/21 02:00:11;;;;;;;10.07;8.90;;;;;;;-150.07;73.36;61562.38;4913530;29;20095;-85
2021/05/21 02:02:38;;;;;;;9.50;7.15;;;;;;;-150.07;72.83;61445.19;4894309;29;20096;-87
2021/05/21 02:05:07;;;;;;;6.82;6.15;;;;;;;-150.07;72.86;61581.22;4904066;29;20036;-86
2021/05/21 02:07:34;;;;;;;6.60;6.00;;;;;;;-150.07;72.26;61579.13;4901361;29;20480;-86
2021/05/21 02:10:09;;;;;;;7.63;6.28;;;;;;;-150.07;72.33;61428.47;4902798;29;20016;-86
2021/05/21 02:12:37;;;;;;;7.85;6.30;;;;;;;-150.07;71.62;61547.75;4901041;29;20103;-87
2021/05/21 02:15:07;;;;;;;7.10;5.60;;;;;;;-150.07;71.40;62600.44;4917976;29;20035;-87
2021/05/21 02:17:34;;;;;;;7.95;6.28;;;;;;;-150.07;71.48;61637.72;4901179;29;20042;-86
2021/05/21 02:20:02;;;;;;;7.85;6.85;;;;;;;-150.07;71.15;61510.06;4919786;29;20497;-87
2021/05/21 02:22:31;;;;;;;7.38;6.20;;;;;;;-150.07;70.71;61254.78;4938038;29;20022;-87
2021/05/21 02:24:59;;;;;;;7.97;7.28;;;;;;;-150.07;71.39;61650.28;4920904;29;20114;-86
2021/05/21 02:27:28;;;;;;;7.47;6.68;;;;;;;-150.07;70.56;61667.00;4920775;29;20073;-88
2021/05/21 02:29:55;;;;;;;9.68;6.57;;;;;;;-150.07;69.73;61451.47;4919417;29;20067;-87
2021/05/21 02:32:23;;;;;;;9.90;6.47;;;;;;;-150.07;69.24;61478.69;4901003;29;20063;-88
2021/05/21 02:34:50;;;;;;;6.95;6.25;;;;;;;-150.07;69.60;61386.63;4887769;29;20044;-93
2021/05/21 02:37:20;;;;;;;9.57;6.97;;;;;;;-150.07;68.75;61273.63;4908095;29;20071;-89
2021/05/21 02:39:46;;;;;;;6.57;5.97;;;;;;;-150.07;68.10;61587.50;4919674;29;20091;-89
2021/05/21 02:42:13;;;;;;;7.63;6.93;;;;;;;-150.07;68.05;61738.16;4906941;29;20025;-88
2021/05/21 02:44:40;;;;;;;7.25;6.53;;;;;;;-150.07;68.36;61939.06;4921852;29;20034;-88
2021/05/21 02:47:07;;;;;;;9.27;7.10;;;;;;;-150.07;68.33;61528.91;4930489;29;20069;-88
2021/05/21 02:49:35;;;;;;;8.13;6.53;;;;;;;-150.07;68.74;61706.78;4915971;29;20032;-87
2021/05/21 02:52:02;;;;;;;8.02;7.22;;;;;;;-150.07;67.94;61384.53;4920515;29;20067;-88
2021/05/21 02:54:29;;;;;;;9.13;7.05;;;;;;;-150.07;67.24;61604.25;4912096;29;20175;-87
2021/05/21 02:56:55;;;;;;;8.05;6.70;;;;;;;-150.07;67.90;62311.59;4909532;29;20111;-86
2021/05/21 02:59:22;;;;;;;8.70;7.72;;;;;;;-150.07;67.52;61493.34;4918924;29;20485;-85
2021/05/21 03:01:49;;;;;;;8.77;7.80;;;;;;;-150.07;67.07;61514.25;4931651;29;20031;-87
2021/05/21 03:04:16;;;;;;;9.73;8.77;;;;;;;-150.07;67.65;62830.69;4929003;29;20032;-86
2021/05/21 03:06:43;;;;;;;12.27;9.02;;;;;;;-150.07;67.59;60982.78;4928094;29;20138;-87
2021/05/21 03:09:10;;;;;;;10.60;9.55;;;;;;;-150.07;67.41;61692.13;4928565;29;20034;-89
2021/05/21 03:11:37;;;;;;;11.23;9.70;;;;;;;-150.07;67.09;61503.78;4916833;29;20036;-84
2021/05/21 03:14:04;;;;;;;12.40;9.23;;;;;;;-150.07;66.31;61729.78;4901189;29;20485;-89
2021/05/21 03:16:31;;;;;;;16.02;10.57;;;;;;;-150.07;66.96;61487.06;4900208;29;20099;-84
2021/05/21 03:18:58;;;;;;;11.75;10.55;;;;;;;-150.07;65.98;61353.13;4930735;29;20026;-87
2021/05/21 03:21:24;;;;;;;12.85;11.25;;;;;;;-150.07;65.77;61855.34;4916541;29;20044;-85
2021/05/21 03:23:51;;;;;;;12.13;9.80;;;;;;;-150.07;65.97;62600.44;4930135;29;20032;-87
2021/05/21 03:26:18;;;;;;;12.77;10.48;;;;;;;-150.07;65.82;61859.53;4908622;29;20056;-87
2021/05/21 03:28:45;;;;;;;14.85;10.57;;;;;;;-150.07;64.56;62144.16;4903374;29;20071;-92
2021/05/21 03:31:14;;;;;;;14.82;10.48;;;;;;;-150.07;63.90;61876.28;4920513;29;20080;-91
2021/05/21 03:33:41;;;;;;;11.63;9.60;;;;;;;-150.07;64.27;61595.88;4902954;29;20036;-86
2021/05/21 03:36:10;;;;;;;14.32;10.75;;;;;;;-150.07;63.19;62167.19;4920505;29;20091;-86
2021/05/21 03:38:37;;;;;;;12.05;9.93;;;;;;;-150.07;62.15;63171.91;4913229;29;20095;-88
2021/05/21 03:41:06;;;;;;;11.10;9.85;;;;;;;-150.07;62.20;61851.16;4901076;29;20051;-89
2021/05/21 03:43:33;;;;;;;13.63;10.20;;;;;;;-150.07;60.57;62818.13;4903145;29;20200;-92
2021/05/21 03:46:00;;;;;;;9.77;8.82;;;;;;;-150.07;61.14;61964.19;4930488;29;20038;-89
2021/05/21 03:48:27;;;;;;;10.63;9.52;;;;;;;-150.07;61.78;61936.97;4901690;29;20028;-90
2021/05/21 03:50:54;;;;;;;14.73;9.30;;;;;;;-150.07;60.69;62529.28;4912461;29;20035;-90
2021/05/21 03:53:20;;;;;;;10.75;8.80;;;;;;;-150.07;61.74;61570.75;4903431;29;20042;-90
2021/05/21 03:55:47;;;;;;;17.08;9.48;;;;;;;-150.07;61.67;62830.69;4920589;29;20083;-89
2021/05/21 03:58:22;;;;;;;10.18;8.88;;;;;;;-150.07;62.50;61983.00;4904343;29;20036;-93
2021/05/21 04:00:51;;;;;;;10.02;8.93;;;;;;;-150.07;62.68;61880.47;4909219;29;20024;-89
2021/05/21 04:03:18;;;;;;;9.85;8.55;;;;;;;-150.07;62.70;62077.19;4903833;29;20059;-91
2021/05/21 04:05:45;;;;;;;9.82;8.85;;;;;;;-150.07;61.69;61834.44;4923249;29;20035;-90
2021/05/21 04:08:12;;;;;;;11.40;9.57;;;;;;;-150.07;62.35;61616.78;4925998;29;20035;-89
2021/05/21 04:10:39;;;;;;;10.68;9.68;;;;;;;-150.07;62.85;63136.31;4924000;29;20177;-90
2021/05/21 04:13:06;;;;;;;12.63;9.52;;;;;;;-150.07;62.16;61949.53;4923659;29;20067;-91
2021/05/21 04:15:33;;;;;;;15.98;10.07;;;;;;;-150.07;61.47;61721.44;4923185;29;20024;-88
2021/05/21 04:18:00;;;;;;;12.30;9.88;;;;;;;-150.07;62.07;62110.69;4923226;29;20035;-89
2021/05/21 04:20:28;;;;;;;13.07;9.02;;;;;;;-150.07;61.55;61754.91;4922028;29;20032;-90
2021/05/21 04:22:56;;;;;;;9.88;8.30;;;;;;;-150.07;61.75;62077.19;4922474;29;20063;-88
2021/05/21 04:25:23;;;;;;;17.92;13.30;;;;;;;-150.07;61.03;62102.31;4919499;29;20050;-92
2021/05/21 04:27:50;;;;;;;7.97;7.20;;;;;;;-150.07;60.22;61817.69;4921163;29;20036;-91
2021/05/21 04:30:17;;;;;;;9.68;8.68;;;;;;;-150.07;60.77;62326.25;4921121;29;20024;-91
2021/05/21 04:32:44;;;;;;;10.20;7.35;;;;;;;-150.07;61.02;61968.38;4918676;29;20122;-91
2021/05/21 04:35:11;;;;;;;8.95;8.05;;;;;;;-150.07;60.95;62062.53;4914666;29;20059;-90
2021/05/21 04:37:38;;;;;;;7.32;6.63;;;;;;;-150.07;61.28;61547.75;4919337;29;20024;-89
2021/05/21 04:40:06;;;;;;;9.95;7.32;;;;;;;-150.07;61.46;61918.13;4923393;29;20054;-89
2021/05/21 04:42:33;;;;;;;7.93;7.13;;;;;;;-150.07;61.02;61679.56;4925117;29;20063;-90
2021/05/21 04:47:44;;;;;;;8.55;6.50;;;;;;;-150.07;61.50;62767.91;4936088;29;20086;-91
2021/05/21 04:50:11;;;;;;;7.28;5.55;;;;;;;-150.07;61.58;61323.84;4914563;29;20028;-89
2021/05/21 04:52:38;;;;;;;5.25;4.75;;;;;;;-150.07;59.79;63098.63;4926361;29;20035;-90
2021/05/21 04:55:06;;;;;;;7.20;5.25;;;;;;;-150.07;59.87;62026.97;4925007;29;20446;-89
2021/05/21 04:57:33;;;;;;;7.90;6.50;;;;;;;-150.07;59.41;62135.78;4908631;29;20083;-90
2021/05/21 05:00:00;;;;;;;7.25;6.38;;;;;;;-150.07;59.32;62096.03;4910992;29;20024;-91
2021/05/21 05:02:26;;;;;;;8.73;6.07;;;;;;;-150.07;60.24;61842.81;4898631;29;20035;-89
2021/05/21 05:04:53;;;;;;;7.05;6.35;;;;;;;-150.07;59.82;61985.09;4913210;29;20058;-89
2021/05/21 05:07:20;;;;;;;5.97;5.38;;;;;;;-150.07;58.21;62188.13;4922097;29;20481;-90
2021/05/21 05:09:47;;;;;;;7.45;5.55;;;;;;;-150.07;58.10;62219.50;4907973;29;20039;-89
2021/05/21 05:12:14;;;;;;;6.78;4.80;;;;;;;-150.07;57.10;62068.81;4912851;29;20413;-90
2021/05/21 05:14:41;;;;;;;7.35;5.97;;;;;;;-150.07;56.48;62035.34;4911419;29;20044;-89
2021/05/21 05:17:08;;;;;;;5.47;4.82;;;;;;;-150.07;56.70;62299.03;4925661;29;20056;-91
2021/05/21 05:19:35;;;;;;;8.73;6.72;;;;;;;-150.07;57.24;62311.59;4923659;29;20478;-88
2021/05/21 05:22:02;;;;;;;7.28;5.07;;;;;;;-150.07;56.47;62876.75;4925597;29;20088;-90
2021/05/21 05:24:34;;;;;;;7.85;4.75;;;;;;;-150.07;55.75;62269.75;4924564;29;20050;-89
2021/05/21 05:27:02;;;;;;;4.85;4.35;;;;;;;-150.07;56.18;62299.03;4924944;29;20036;-90
2021/05/21 05:29:30;;;;;;;6.57;5.68;;;;;;;-150.07;56.07;62931.16;4919199;29;20016;-90
2021/05/21 05:31:57;;;;;;;8.98;5.20;;;;;;;-150.07;56.67;63157.25;4910069;29;20103;-90
2021/05/21 05:34:24;;;;;;;6.50;3.95;;;;;;;-150.07;56.91;62131.59;4907182;29;20032;-91
2021/05/21 05:36:51;;;;;;;4.65;4.25;;;;;;;-150.07;56.54;62123.25;4914129;29;20032;-89
2021/05/21 05:39:18;;;;;;;5.18;4.45;;;;;;;-150.07;56.21;62240.44;4904249;29;20114;-88
2021/05/21 05:41:47;;;;;;;6.55;4.63;;;;;;;-150.07;56.56;62010.22;4922773;29;20059;-91
2021/05/21 05:44:14;;;;;;;5.27;4.73;;;;;;;-150.07;56.68;61558.19;4918130;28;20020;-88
2021/05/21 05:46:41;;;;;;;5.97;4.60;;;;;;;-150.07;56.57;63404.28;4933027;28;20020;-90
2021/05/21 05:49:08;;;;;;;6.22;4.80;;;;;;;-150.07;56.56;62196.50;4904868;29;20059;-89
2021/05/21 05:51:35;;;;;;;5.38;4.65;;;;;;;-150.07;56.86;62290.66;4923229;29;20036;-91
2021/05/21 05:54:02;;;;;;;5.57;4.55;;;;;;;-150.07;55.88;62177.66;4927818;29;20067;-91
2021/05/21 05:56:29;;;;;;;7.40;4.75;;;;;;;-150.07;56.23;62550.22;4915216;29;20040;-90
2021/05/21 05:58:56;;;;;;;5.50;4.00;;;;;;;-150.07;56.88;61966.28;4906742;29;20027;-87
2021/05/21 06:01:23;;;;;;;6.53;4.85;;;;;;;-150.07;56.89;62060.44;4913323;29;20036;-92
2021/05/21 06:03:50;;;;;;;5.75;5.18;;;;;;;-150.07;57.48;63134.22;4904141;29;20036;-91
2021/05/21 06:06:17;;;;;;;7.00;5.97;;;;;;;-150.07;57.48;61976.75;4890843;29;20036;-85
2021/05/21 06:08:44;;;;;;;6.35;4.65;;;;;;;-150.07;57.87;62093.94;4904335;29;20515;-85
2021/05/21 06:11:11;;;;;;;5.35;4.82;;;;;;;-150.07;58.13;62119.06;4907062;29;20036;-90
2021/05/21 06:13:38;;;;;;;5.47;4.95;;;;;;;-150.07;58.07;61880.47;4920716;29;20034;-84
2021/05/21 06:16:05;;;;;;;9.73;4.60;;;;;;;-150.07;57.89;62937.44;4921435;29;20378;-88
2021/05/21 06:18:32;;;;;;;4.97;4.55;;;;;;;-150.07;58.16;61800.94;4939860;29;20055;-89
2021/05/21 06:20:58;;;;;;;5.20;4.70;;;;;;;-150.07;58.07;62903.97;4920112;29;20031;-89
2021/05/21 06:23:25;;;;;;;7.85;4.30;;;;;;;-150.07;58.52;62983.50;4923101;29;20087;-86
2021/05/21 06:25:55;;;;;;;4.95;4.30;;;;;;;-150.07;58.02;61397.06;4922847;29;20451;-88
2021/05/21 06:28:23;;;;;;;;;;;;;;;-150.07;58.49;62135.78;4923334;29;20398;-88
2021/05/21 06:30:54;;;;;;;4.97;4.55;;;;;;;-150.07;57.94;61934.88;4914594;29;19925;-89
2021/05/21 06:33:21;;;;;;;8.13;4.80;;;;;;;-150.07;58.02;63322.63;4914290;29;20459;-87
2021/05/21 06:35:49;;;;;;;6.20;4.72;;;;;;;-150.07;58.50;61560.28;4930488;29;20031;-87
2021/05/21 06:38:16;;;;;;;5.28;4.28;;;;;;;-150.07;57.95;61930.69;4921968;29;20039;-87
2021/05/21 06:40:43;;;;;;;4.90;4.07;;;;;;;-150.07;58.59;61526.81;4911938;29;20442;-85
2021/05/21 06:43:12;;;;;;;4.82;4.10;;;;;;;-150.07;58.24;61916.03;4939424;29;20508;-91
2021/05/21 06:45:41;;;;;;;5.63;3.47;;;;;;;-150.07;59.85;61809.31;4905076;29;20409;-87
2021/05/21 06:48:08;;;;;;;4.30;3.90;;;;;;;-150.07;61.30;61692.13;4924771;29;20039;-91
2021/05/21 06:50:38;;;;;;;4.35;3.95;;;;;;;-150.07;61.39;61943.25;4924138;29;20046;-91
2021/05/21 06:53:05;;;;;;;5.53;4.43;;;;;;;-150.07;60.87;61641.91;4922423;29;20032;-90
2021/05/21 06:55:32;;;;;;;3.78;3.45;;;;;;;-150.07;60.83;61600.06;4923384;29;20034;-90
2021/05/21 06:57:59;;;;;;;6.07;3.80;;;;;;;-150.07;60.62;61692.13;4923886;29;20034;-90
2021/05/21 07:00:26;;;;;;;12.13;3.10;;;;;;;-150.07;59.81;62713.47;4922459;29;20043;-93
2021/05/21 07:02:53;;;;;;;4.03;2.25;;;;;;;-150.07;59.95;61692.13;4926768;29;20035;-92
2021/05/21 07:05:20;;;;;;;3.80;3.00;;;;;;;-150.07;59.00;61893.03;4928110;29;20497;-92
2021/05/21 07:07:47;;;;;;;3.30;2.50;;;;;;;-150.07;59.48;61991.38;4918272;29;20024;-94
2021/05/21 07:10:15;;;;;;;3.00;2.78;;;;;;;-150.07;59.22;61792.56;4906896;29;20028;-93
2021/05/21 07:12:43;;;;;;;5.20;2.75;;;;;;;-150.07;59.04;62018.59;4931492;29;20019;-94
2021/05/21 07:15:10;;;;;;;2.88;2.63;;;;;;;-150.07;59.34;61690.03;4942072;28;20289;-94
2021/05/21 07:17:38;;;;;;;4.10;3.45;;;;;;;-150.07;59.45;62793.00;4917657;23;20055;-93
2021/05/21 07:20:06;;;;;;;4.63;2.78;;;;;;;-150.07;59.12;61227.59;4897723;29;20040;-92
2021/05/21 07:22:33;;;;;;;6.00;2.67;;;;;;;-150.07;59.32;61646.09;4892896;29;20561;-93
2021/05/21 07:24:59;;;;;;;8.63;2.40;;;;;;;-150.07;60.32;61784.22;4897338;29;20062;-93
2021/05/21 07:27:26;;;;;;;4.90;3.08;;;;;;;-150.07;60.15;61903.50;4890292;29;20021;-91
2021/05/21 07:29:53;;;;;;;5.13;3.58;;;;;;;-150.07;60.01;61865.81;4886524;29;20085;-93
2021/05/21 07:32:20;;;;;;;7.07;3.83;;;;;;;-150.07;60.12;62050.00;4884879;29;20119;-92
2021/05/21 07:34:47;;;;;;;4.40;3.47;;;;;;;-150.07;60.47;61614.69;4885152;29;20550;-92
2021/05/21 07:37:14;;;;;;;4.15;3.22;;;;;;;-150.07;59.30;61746.53;4891674;29;20135;-89
2021/05/21 07:40:01;;;;;;;3.83;3.53;;;;;;;-150.07;59.89;61319.66;4901058;29;20045;-95
2021/05/21 07:42:27;;;;;;;4.07;3.78;;;;;;;-150.07;59.93;62914.41;4900066;29;20029;-93
2021/05/21 07:44:54;;;;;;;4.82;3.80;;;;;;;-150.07;60.05;62738.59;4902751;29;20033;-93
2021/05/21 07:47:21;;;;;;;6.85;4.13;;;;;;;-150.07;60.32;61570.75;4898907;29;20071;-92
2021/05/21 07:49:48;;;;;;;5.00;3.85;;;;;;;-150.07;59.57;62947.91;4892860;29;20041;-92
2021/05/21 07:52:15;;;;;;;7.32;4.65;;;;;;;-150.07;60.57;61461.94;4893644;29;20033;-92
2021/05/21 07:54:42;;;;;;;6.95;4.57;;;;;;;-150.07;60.83;61673.28;4892445;29;20089;-91
2021/05/21 07:57:10;;;;;;;5.25;4.75;;;;;;;-150.07;61.30;61893.03;4914488;29;20029;-92
2021/05/21 07:59:36;;;;;;;5.90;4.45;;;;;;;-150.07;60.85;61698.41;4906609;29;20538;-93
2021/05/21 08:02:03;;;;;;;6.78;5.47;;;;;;;-150.07;60.69;61662.84;4889698;29;20032;-95
2021/05/21 08:04:31;;;;;;;5.35;4.20;;;;;;;-150.07;60.40;61284.09;4894989;29;20029;-93
2021/05/21 08:06:59;;;;;;;6.60;4.70;;;;;;;-150.07;59.83;62039.53;4899061;29;20017;-93
2021/05/21 08:09:26;;;;;;;8.27;5.80;;;;;;;-150.07;59.93;61821.88;4902976;29;20033;-92
2021/05/21 08:11:55;;;;;;;7.10;4.95;;;;;;;-150.07;59.55;62428.81;4900877;29;20163;-92
2021/05/21 08:14:24;;;;;;;6.65;4.88;;;;;;;-150.07;59.65;61733.97;4888991;29;21200;-92
2021/05/21 08:16:51;;;;;;;6.97;4.88;;;;;;;-150.07;60.04;61667.00;4884749;29;20117;-94
2021/05/21 08:19:18;;;;;;;9.00;5.85;;;;;;;-150.07;60.38;61733.97;4882321;29;20394;-92
2021/05/21 08:21:46;;;;;;;11.50;5.43;;;;;;;-150.07;59.92;61675.38;4884203;29;20071;-92
2021/05/21 08:24:13;;;;;;;6.45;4.75;;;;;;;-150.07;59.77;63169.81;4880154;29;20119;-89
2021/05/21 08:26:41;;;;;;;5.30;4.40;;;;;;;-150.07;60.04;62981.41;4881658;29;20029;-92
2021/05/21 08:29:08;;;;;;;10.07;7.95;;;;;;;-150.07;60.24;62395.31;4888723;29;20020;-92
2021/05/21 08:31:35;;;;;;;8.07;4.40;;;;;;;-150.07;59.48;61865.81;4890604;29;20029;-92
2021/05/21 08:34:01;;;;;;;5.82;4.88;;;;;;;-150.07;59.47;61533.09;4892347;29;20059;-90
2021/05/21 08:36:29;;;;;;;8.27;5.70;;;;;;;-150.07;59.65;61834.44;4889050;29;20029;-90
2021/05/21 08:38:56;;;;;;;7.85;5.30;;;;;;;-150.07;58.59;62085.56;4874865;29;20032;-92
2021/05/21 08:41:25;;;;;;;5.28;4.55;;;;;;;-150.07;58.47;62110.69;4873620;29;20044;-90
2021/05/21 08:43:55;;;;;;;6.95;4.72;;;;;;;-150.07;58.39;62977.22;4887726;29;20035;-92
2021/05/21 08:46:24;;;;;;;5.03;4.47;;;;;;;-150.07;58.01;61964.19;4865040;29;20044;-87
2021/05/21 08:48:51;;;;;;;3.65;3.28;;;;;;;-150.07;58.30;62131.59;4887202;29;20053;-86
2021/05/21 08:51:18;;;;;;;6.65;4.07;;;;;;;-150.07;57.29;61723.50;4895761;29;20032;-90
2021/05/21 08:53:45;;;;;;;5.47;4.90;;;;;;;-150.07;57.50;62137.88;4891909;29;20029;-92
2021/05/21 08:56:13;;;;;;;10.50;4.32;;;;;;;-150.07;57.43;61907.69;4897047;29;20025;-87
2021/05/21 08:58:43;;;;;;;7.40;4.25;;;;;;;-150.07;57.05;63259.84;4889317;29;20040;-91
2021/05/21 09:01:13;;;;;;;7.05;3.63;;;;;;;-150.07;56.58;62127.41;4885693;29;20130;-91
2021/05/21 09:03:40;;;;;;;14.90;4.07;;;;;;;-150.07;55.72;61955.81;4878190;29;20108;-87
2021/05/21 09:06:16;;;;;;;3.83;3.40;;;;;;;-150.07;56.46;61962.09;4883066;29;20092;-87
2021/05/21 09:08:56;;;;;;;4.30;3.38;;;;;;;-150.07;55.55;61976.75;4897135;29;20032;-91
2021/05/21 09:11:28;;;;;;;4.18;3.30;;;;;;;-150.07;55.50;62194.41;4887294;29;20074;-90
2021/05/21 09:14:11;;;;;;;8.38;3.83;;;;;;;-150.07;56.37;62165.09;4876776;29;20035;-91
2021/05/21 09:16:39;;;;;;;4.95;3.40;;;;;;;-150.07;55.76;61851.16;4881830;29;20076;-85
2021/05/21 09:19:20;;;;;;;6.13;4.40;;;;;;;-150.07;55.37;62236.25;4878230;29;20029;-88
2021/05/21 09:21:48;;;;;;;8.52;4.72;;;;;;;-150.07;56.49;62039.53;4883926;29;20025;-84
2021/05/21 09:24:17;;;;;;;10.80;5.45;;;;;;;-150.07;55.88;63083.97;4892297;29;20044;-86
2021/05/21 09:26:46;;;;;;;4.15;3.58;;;;;;;-150.07;56.63;62353.47;4885164;29;20025;-86
2021/05/21 09:29:18;;;;;;;5.97;4.07;;;;;;;-150.07;56.68;62093.94;4882145;29;20112;-88
2021/05/21 09:31:49;;;;;;;7.20;3.83;;;;;;;-150.07;56.92;61926.50;4881582;29;20036;-86
2021/05/21 09:34:34;;;;;;;4.82;3.35;;;;;;;-150.07;57.22;62142.06;4882377;29;20096;-86
2021/05/21 09:37:01;;;;;;;10.93;3.83;;;;;;;-150.07;57.15;62160.91;4891331;29;20162;-87
2021/05/21 09:39:29;;;;;;;6.90;3.78;;;;;;;-150.07;57.02;61851.16;4886467;29;20541;-86
2021/05/21 09:41:57;;;;;;;8.60;3.33;;;;;;;-150.07;58.29;61851.16;4881413;29;20063;-86
2021/05/21 09:44:27;;;;;;;4.93;3.35;;;;;;;-150.07;58.37;62077.19;4880347;29;20057;-87
2021/05/21 09:46:54;;;;;;;6.47;3.50;;;;;;;-150.07;58.55;62075.09;4878708;29;20035;-83
2021/05/21 09:49:39;;;;;;;5.28;2.97;;;;;;;-150.07;58.90;61413.81;4880462;29;20060;-84
2021/05/21 09:52:14;;;;;;;5.13;3.17;;;;;;;-150.07;59.86;61861.63;4879941;29;20521;-83
2021/05/21 09:54:57;;;;;;;5.90;3.15;;;;;;;-150.07;60.69;61675.38;4878085;29;20029;-85
2021/05/21 09:57:33;;;;;;;7.55;3.53;;;;;;;-150.07;61.22;62497.88;4878256;29;20037;-84
2021/05/21 10:00:00;;;;;;;3.50;3.20;;;;;;;-150.07;61.18;61947.44;4878080;29;20830;-83
2021/05/21 10:02:30;;;;;;;5.15;3.75;;;;;;;-150.07;60.81;61930.69;4877828;29;20037;-84
2021/05/21 10:04:59;;;;;;;6.35;3.88;;;;;;;-150.07;60.87;62014.41;4878182;29;20033;-84
2021/05/21 10:07:27;;;;;;;3.83;3.20;;;;;;;-150.07;61.42;61976.75;4873144;29;20046;-82
2021/05/21 10:09:54;;;;;;;12.57;4.10;;;;;;;-150.07;61.73;62533.47;4881168;29;20105;-84
2021/05/21 10:12:21;;;;;;;8.15;4.35;;;;;;;-150.07;61.65;61675.38;4879241;29;20783;-83
2021/05/21 10:14:49;;;;;;;9.40;4.68;;;;;;;-150.07;62.00;61579.13;4860571;29;20455;-84
2021/05/21 10:17:22;;;;;;;4.82;3.95;;;;;;;-150.07;61.73;61790.47;4888772;29;20056;-87
2021/05/21 10:19:51;;;;;;;6.78;5.05;;;;;;;-150.07;61.56;61493.34;4869838;29;20057;-86
2021/05/21 10:22:26;;;;;;;7.22;4.80;;;;;;;-150.07;61.25;61616.78;4875955;29;20041;-87
2021/05/21 10:24:57;;;;;;;11.65;7.18;;;;;;;-150.07;60.17;61798.84;4879538;29;20035;-88
2021/05/21 10:27:30;;;;;;;5.75;4.90;;;;;;;-150.07;61.09;61897.22;4882848;29;20077;-90
2021/05/21 10:30:01;;;;;;;10.98;6.07;;;;;;;-150.07;61.11;61623.06;4891794;29;20041;-86
2021/05/21 10:32:30;;;;;;;5.88;4.78;;;;;;;-150.07;61.06;61972.56;4900999;29;20498;-89
2021/05/21 10:34:59;;;;;;;9.20;5.30;;;;;;;-150.07;60.84;61474.50;4883338;29;20052;-91
2021/05/21 10:37:35;;;;;;;7.63;5.35;;;;;;;-150.07;61.31;61570.75;4898916;29;20475;-91
2021/05/21 10:40:21;;;;;;;7.45;5.07;;;;;;;-150.07;60.12;61893.03;4886686;29;20035;-90
2021/05/21 10:42:50;;;;;;;10.98;5.70;;;;;;;-150.07;59.88;61834.44;4883103;29;20040;-91
2021/05/21 10:45:22;;;;;;;9.00;5.18;;;;;;;-150.07;59.91;61692.13;4886432;29;20025;-92
2021/05/21 10:48:00;;;;;;;7.88;6.57;;;;;;;-150.07;60.63;61777.94;4883431;29;20037;-93
2021/05/21 10:50:38;;;;;;;8.13;5.15;;;;;;;-150.07;61.04;61964.19;4883585;29;20037;-90
2021/05/21 10:53:09;;;;;;;5.97;4.53;;;;;;;-150.07;60.87;62985.59;4884336;29;20108;-92
2021/05/21 10:55:48;;;;;;;9.50;5.10;;;;;;;-150.07;59.92;61951.63;4884818;29;20033;-91
2021/05/21 10:58:22;;;;;;;4.85;4.43;;;;;;;-150.07;59.51;61754.91;4884657;29;20033;-91
2021/05/21 11:01:29;;;;;;;5.10;4.50;;;;;;;-150.07;59.50;61955.81;4886942;29;20044;-89
2021/05/21 11:04:03;;;;;;;5.63;4.70;;;;;;;-150.07;59.21;61945.34;4856817;29;20070;-90
2021/05/21 11:06:33;;;;;;;5.45;4.35;;;;;;;-150.07;59.22;63125.84;4884720;29;20479;-89
2021/05/21 11:09:08;;;;;;;5.32;4.82;;;;;;;-150.07;59.39;61922.31;4883626;29;20032;-89
2021/05/21 11:11:59;;;;;;;9.85;4.78;;;;;;;-150.07;58.82;61939.06;4882228;29;20041;-88
2021/05/21 11:14:30;;;;;;;4.57;3.55;;;;;;;-150.07;57.96;61918.13;4882087;29;20040;-90
2021/05/21 11:16:58;;;;;;;6.80;4.50;;;;;;;-150.07;58.52;61265.25;4874849;29;20057;-90
2021/05/21 11:19:31;;;;;;;5.50;3.90;;;;;;;-150.07;58.14;61903.50;4882197;29;20399;-88
2021/05/21 11:22:28;;;;;;;4.25;3.30;;;;;;;-150.07;58.19;61719.34;4890561;29;20529;-87
2021/05/21 11:24:59;;;;;;;3.88;3.08;;;;;;;-150.07;57.58;61591.69;4884634;29;20113;-88